Anchorage, AK

1:06 AM AKDT on July 05, 2015 (GMT -0800)
Merrill | | Change Station
CLOSE
Current Station
Airport
Location: Anchorage Merrill,
Elevation: 135 ft
Nearby Weather Stations

Elev 135 ft 61.22 °N, 149.85 °W | Updated 13 minutes ago

Overcast
Overcast
60 °F
Feels Like 60 °F
N
0
Wind Variable Wind from North

Today
High -- | Low -- °F
--% Chance of Precip.
Yesterday
High -- | Low -- °F
Precip. -- in
4:32 AM 11:34 PM
Waning Gibbous, 86% visible
Pressure 30.21 in
Visibility 10.0 miles
Clouds Few 4000 ft
Mostly Cloudy 6000 ft
Overcast 10000 ft
Dew Point 52 °F
Humidity 75%
Rainfall 0.00 in
Snow Depth Not available.
UV 0 out of 12
Pollen Not available.
Air Quality Not available.
Flu Activity Not available.
METAR PAMR 050853Z 00000KT 10SM FEW040 BKN060 OVC100 16/11 A3021 RMK AO2 SLP229 T01560111 401890150 51006

More Conditions Fewer Conditions

Pressure 30.21 in
Visibility 10.0 miles
Clouds Few 4000 ft
Mostly Cloudy 6000 ft
Overcast 10000 ft
Dew Point 52 °F
Humidity 75%
Rainfall 0.00 in
Snow Depth Not available.
UV 0 out of 12
Pollen Not available.
Air Quality Not available.
Flu Activity Not available.
METAR PAMR 050853Z 00000KT 10SM FEW040 BKN060 OVC100 16/11 A3021 RMK AO2 SLP229 T01560111 401890150 51006

More Conditions Fewer Conditions

10-Day Weather Forecast

×

Almanac

Astronomy

Jul. 05, 2015 Rise Set
Actual Time
Civil Twilight
Nautical Twilight
Astronomical Twilight
Moon
Length of Visible Light
Length of Day
Tomorrow will be .
, % of the Moon is Illuminated

Today's Extremes

State Highs State Lows

Community

WunderPhotos

Upload Photos

1,835,218 photos uploaded!

WunderBlogs® & News

Nearby

Air Quality

  Air Quality AQ Index Pollutant
Not available.

Snow Depth

Station Depth Elevation

Earthquake Activity

City Distance Mag. Time & Date
Minimum magnitude displayed is 2.5.

Coastal Water Temperatures

Place Temperature

Stations

Nearby Weather Stations

Station Location Temp. Windchill Dew Point Humidity Wind Precip. Elev Updated Type